Jonesboro, AR

8:33 PM CDT on July 24, 2016 (GMT -0500)
Jonesboro Municipal | | Change Station

Elev 262 ft 35.83 °N, 90.65 °W | Updated 40 minutes ago

Clear
Clear
79 °F
Feels Like 79 °F
N
0
Wind Variable Wind from North

Today
High -- | Low -- °F
--% Chance of Precip.
Yesterday
High -- | Low -- °F
Precip. -- in
Pressure 29.94 in
Visibility 10.0 miles
Clouds Clear
Dew Point 75 °F
Humidity 88%
Rainfall 0.12 in
Snow Depth Not available.
6:04 AM 8:13 PM
Waning Gibbous, 71% visible
METAR KJBR 250053Z AUTO 00000KT 10SM CLR 26/24 A2995 RMK AO2 SLP137 T02610239 $
Pressure 29.94 in
Visibility 10.0 miles
Clouds Clear
Dew Point 75 °F
Humidity 88%
Rainfall 0.12 in
Snow Depth Not available.
6:04 AM 8:13 PM
Waning Gibbous, 71% visible
METAR KJBR 250053Z AUTO 00000KT 10SM CLR 26/24 A2995 RMK AO2 SLP137 T02610239 $

10-Day Weather Forecast

Almanac

Astronomy

Jul. 24, 2016 Rise Set
Actual Time
Civil Twilight
Nautical Twilight
Astronomical Twilight
Moon
Length of Visible Light
Length of Day
Tomorrow will be .
, % of the Moon is Illuminated

Today's Extremes

State Highs State Lows

Community

WunderPhotos

Upload Photos

1,927,226 photos uploaded!

WunderBlog® & News

Nearby

Air Quality

  Air Quality AQ Index Pollutant
Not available.

Snow Depth

Station Depth Elevation

Earthquake Activity

City Distance Mag. Time & Date
Minimum magnitude displayed is 2.5.

Coastal Water Temperatures

Place Temperature

Stations

Nearby Weather Stations

Station Location Temp. Windchill Dew Point Humidity Wind Precip. Elev Updated Type
                   

Watches & Warnings

There are currently no watches in effect.